Wiggins, CO (80654)

7:45 AM MDT on July 30, 2016 (GMT -0600)
CODOT | | Change Station

Elev 4451 ft 40.25 °N, 104.04 °W | Updated 11 days ago

Clear
Clear
79 °F
Feels Like 79 °F
N
5
Wind Variable Wind from NE
Gusts mph

Today
High -- | Low -- °F
--% Chance of Precip.
Yesterday
High -- | Low -- °F
Precip. -- in
Pressure 30.06 in
Visibility 10.0 miles
Clouds Clear
Dew Point 61 °F
Humidity 54%
Rainfall in
Snow Depth Not available.
5:52 AM 8:11 PM
Waning Crescent, 13% visible
METAR KFMM 301335Z AUTO 08006KT 10SM CLR 19/16 A3006 RMK AO2 T01910163
Pressure 30.06 in
Visibility 10.0 miles
Clouds Clear
Dew Point 61 °F
Humidity 54%
Rainfall in
Snow Depth Not available.
5:52 AM 8:11 PM
Waning Crescent, 13% visible
METAR KFMM 301335Z AUTO 08006KT 10SM CLR 19/16 A3006 RMK AO2 T01910163

10-Day Weather Forecast

Almanac

Astronomy

Jul. 30, 2016 Rise Set
Actual Time
Civil Twilight
Nautical Twilight
Astronomical Twilight
Moon
Length of Visible Light
Length of Day
Tomorrow will be .
, % of the Moon is Illuminated

Today's Extremes

State Highs State Lows

Community

WunderPhotos

Upload Photos

1,928,560 photos uploaded!

WunderBlog® & News

Nearby

Air Quality

  Air Quality AQ Index Pollutant
Not available.

Snow Depth

Station Depth Elevation

Earthquake Activity

City Distance Mag. Time & Date
Minimum magnitude displayed is 2.5.

Coastal Water Temperatures

Place Temperature

Stations

Nearby Weather Stations

Station Location Temp. Windchill Dew Point Humidity Wind Precip. Elev Updated Type
                   

Watches & Warnings

There are currently no watches in effect.